sensor_id;sensor_type;location;lat;lon;timestamp;P1;P2;P0
70241;PMS5003;57631;52.218;0.108;2022-08-01T00:01:45;10;9;
70241;PMS5003;57631;52.218;0.108;2022-08-01T00:04:10;8;8;
70241;PMS5003;57631;52.218;0.108;2022-08-01T00:06:36;8;8;
70241;PMS5003;57631;52.218;0.108;2022-08-01T00:09:01;9;8;
70241;PMS5003;57631;52.218;0.108;2022-08-01T00:11:27;10;9;
70241;PMS5003;57631;52.218;0.108;2022-08-01T00:13:52;11;10;
70241;PMS5003;57631;52.218;0.108;2022-08-01T00:16:17;7;7;
70241;PMS5003;57631;52.218;0.108;2022-08-01T00:18:43;7;7;
70241;PMS5003;57631;52.218;0.108;2022-08-01T00:21:08;6;6;
70241;PMS5003;57631;52.218;0.108;2022-08-01T00:23:33;12;11;
70241;PMS5003;57631;52.218;0.108;2022-08-01T00:25:59;12;6;
70241;PMS5003;57631;52.218;0.108;2022-08-01T00:28:24;12;7;
70241;PMS5003;57631;52.218;0.108;2022-08-01T00:30:49;7;7;
70241;PMS5003;57631;52.218;0.108;2022-08-01T00:33:15;13;10;
70241;PMS5003;57631;52.218;0.108;2022-08-01T00:35:40;8;6;
70241;PMS5003;57631;52.218;0.108;2022-08-01T00:38:05;10;9;
70241;PMS5003;57631;52.218;0.108;2022-08-01T00:40:31;9;9;
70241;PMS5003;57631;52.218;0.108;2022-08-01T00:42:56;9;9;
70241;PMS5003;57631;52.218;0.108;2022-08-01T00:45:22;8;8;
70241;PMS5003;57631;52.218;0.108;2022-08-01T00:47:47;7;6;
70241;PMS5003;57631;52.218;0.108;2022-08-01T00:50:13;16;14;
70241;PMS5003;57631;52.218;0.108;2022-08-01T00:52:39;13;13;
70241;PMS5003;57631;52.218;0.108;2022-08-01T00:55:04;12;11;
70241;PMS5003;57631;52.218;0.108;2022-08-01T00:57:30;8;7;
70241;PMS5003;57631;52.218;0.108;2022-08-01T00:59:55;9;9;
70241;PMS5003;57631;52.218;0.108;2022-08-01T01:02:20;10;8;
70241;PMS5003;57631;52.218;0.108;2022-08-01T01:04:46;11;9;
70241;PMS5003;57631;52.218;0.108;2022-08-01T01:07:13;9;9;
70241;PMS5003;57631;52.218;0.108;2022-08-01T01:09:38;10;9;
70241;PMS5003;57631;52.218;0.108;2022-08-01T01:12:05;8;8;
70241;PMS5003;57631;52.218;0.108;2022-08-01T01:14:30;12;9;
70241;PMS5003;57631;52.218;0.108;2022-08-01T01:16:53;9;7;
70241;PMS5003;57631;52.218;0.108;2022-08-01T01:19:20;9;8;
70241;PMS5003;57631;52.218;0.108;2022-08-01T01:21:47;8;8;
70241;PMS5003;57631;52.218;0.108;2022-08-01T01:24:13;9;7;
70241;PMS5003;57631;52.218;0.108;2022-08-01T01:26:38;7;7;
70241;PMS5003;57631;52.218;0.108;2022-08-01T01:29:00;11;9;
70241;PMS5003;57631;52.218;0.108;2022-08-01T01:31:25;11;9;
70241;PMS5003;57631;52.218;0.108;2022-08-01T01:33:51;8;8;
70241;PMS5003;57631;52.218;0.108;2022-08-01T01:36:16;11;9;
70241;PMS5003;57631;52.218;0.108;2022-08-01T01:38:43;11;8;
70241;PMS5003;57631;52.218;0.108;2022-08-01T01:41:07;11;11;
70241;PMS5003;57631;52.218;0.108;2022-08-01T01:43:32;10;8;
70241;PMS5003;57631;52.218;0.108;2022-08-01T01:45:58;11;7;
70241;PMS5003;57631;52.218;0.108;2022-08-01T01:48:23;10;9;
70241;PMS5003;57631;52.218;0.108;2022-08-01T01:50:48;10;8;
70241;PMS5003;57631;52.218;0.108;2022-08-01T01:53:15;8;6;
70241;PMS5003;57631;52.218;0.108;2022-08-01T01:55:39;9;9;
70241;PMS5003;57631;52.218;0.108;2022-08-01T01:58:04;11;11;
70241;PMS5003;57631;52.218;0.108;2022-08-01T02:00:30;7;7;
70241;PMS5003;57631;52.218;0.108;2022-08-01T02:02:55;12;12;
70241;PMS5003;57631;52.218;0.108;2022-08-01T02:05:20;12;9;
70241;PMS5003;57631;52.218;0.108;2022-08-01T02:07:46;11;8;
70241;PMS5003;57631;52.218;0.108;2022-08-01T02:10:11;9;9;
70241;PMS5003;57631;52.218;0.108;2022-08-01T02:12:37;12;10;
70241;PMS5003;57631;52.218;0.108;2022-08-01T02:15:02;9;9;
70241;PMS5003;57631;52.218;0.108;2022-08-01T02:17:27;12;10;
70241;PMS5003;57631;52.218;0.108;2022-08-01T02:19:53;9;9;
70241;PMS5003;57631;52.218;0.108;2022-08-01T02:22:19;9;8;
70241;PMS5003;57631;52.218;0.108;2022-08-01T02:24:44;10;10;
70241;PMS5003;57631;52.218;0.108;2022-08-01T02:27:10;12;10;
70241;PMS5003;57631;52.218;0.108;2022-08-01T02:29:36;12;10;
70241;PMS5003;57631;52.218;0.108;2022-08-01T02:32:00;14;10;
70241;PMS5003;57631;52.218;0.108;2022-08-01T02:34:25;11;9;
70241;PMS5003;57631;52.218;0.108;2022-08-01T02:36:51;12;10;
70241;PMS5003;57631;52.218;0.108;2022-08-01T02:39:17;10;9;
70241;PMS5003;57631;52.218;0.108;2022-08-01T02:41:42;18;13;
70241;PMS5003;57631;52.218;0.108;2022-08-01T02:44:07;9;9;
70241;PMS5003;57631;52.218;0.108;2022-08-01T02:46:33;12;10;
70241;PMS5003;57631;52.218;0.108;2022-08-01T02:48:58;7;7;
70241;PMS5003;57631;52.218;0.108;2022-08-01T02:51:23;10;9;
70241;PMS5003;57631;52.218;0.108;2022-08-01T02:53:48;8;8;
70241;PMS5003;57631;52.218;0.108;2022-08-01T02:56:13;11;10;
70241;PMS5003;57631;52.218;0.108;2022-08-01T02:58:39;8;8;
70241;PMS5003;57631;52.218;0.108;2022-08-01T03:01:04;11;11;
70241;PMS5003;57631;52.218;0.108;2022-08-01T03:03:30;10;9;
70241;PMS5003;57631;52.218;0.108;2022-08-01T03:05:55;11;9;
70241;PMS5003;57631;52.218;0.108;2022-08-01T03:08:20;10;10;
70241;PMS5003;57631;52.218;0.108;2022-08-01T03:10:46;11;10;
70241;PMS5003;57631;52.218;0.108;2022-08-01T03:13:12;14;14;
70241;PMS5003;57631;52.218;0.108;2022-08-01T03:15:38;10;9;
70241;PMS5003;57631;52.218;0.108;2022-08-01T03:18:03;10;8;
70241;PMS5003;57631;52.218;0.108;2022-08-01T03:20:28;11;10;
70241;PMS5003;57631;52.218;0.108;2022-08-01T03:22:53;9;9;
70241;PMS5003;57631;52.218;0.108;2022-08-01T03:25:18;12;10;
70241;PMS5003;57631;52.218;0.108;2022-08-01T03:27:44;10;10;
70241;PMS5003;57631;52.218;0.108;2022-08-01T03:30:10;9;8;
70241;PMS5003;57631;52.218;0.108;2022-08-01T03:32:34;8;8;
70241;PMS5003;57631;52.218;0.108;2022-08-01T03:35:00;9;8;
70241;PMS5003;57631;52.218;0.108;2022-08-01T03:37:26;11;8;
70241;PMS5003;57631;52.218;0.108;2022-08-01T03:39:54;7;6;
70241;PMS5003;57631;52.218;0.108;2022-08-01T03:42:17;13;9;
70241;PMS5003;57631;52.218;0.108;2022-08-01T03:44:41;9;9;
70241;PMS5003;57631;52.218;0.108;2022-08-01T03:47:07;11;10;
70241;PMS5003;57631;52.218;0.108;2022-08-01T03:49:32;11;10;
70241;PMS5003;57631;52.218;0.108;2022-08-01T03:51:57;11;9;
70241;PMS5003;57631;52.218;0.108;2022-08-01T03:54:23;7;7;
70241;PMS5003;57631;52.218;0.108;2022-08-01T03:56:47;12;10;
70241;PMS5003;57631;52.218;0.108;2022-08-01T03:59:13;9;9;
70241;PMS5003;57631;52.218;0.108;2022-08-01T04:01:38;6;6;
70241;PMS5003;57631;52.218;0.108;2022-08-01T04:04:04;11;11;
70241;PMS5003;57631;52.218;0.108;2022-08-01T04:06:29;9;9;
70241;PMS5003;57631;52.218;0.108;2022-08-01T04:08:54;7;7;
70241;PMS5003;57631;52.218;0.108;2022-08-01T04:11:20;8;8;
70241;PMS5003;57631;52.218;0.108;2022-08-01T04:13:45;13;11;
70241;PMS5003;57631;52.218;0.108;2022-08-01T04:16:10;11;9;
70241;PMS5003;57631;52.218;0.108;2022-08-01T04:18:36;10;8;
70241;PMS5003;57631;52.218;0.108;2022-08-01T04:21:01;11;9;
70241;PMS5003;57631;52.218;0.108;2022-08-01T04:23:26;9;9;
70241;PMS5003;57631;52.218;0.108;2022-08-01T04:25:52;13;10;
70241;PMS5003;57631;52.218;0.108;2022-08-01T04:28:17;10;10;
70241;PMS5003;57631;52.218;0.108;2022-08-01T04:30:43;10;10;
70241;PMS5003;57631;52.218;0.108;2022-08-01T04:33:08;9;7;
70241;PMS5003;57631;52.218;0.108;2022-08-01T04:35:33;10;10;
70241;PMS5003;57631;52.218;0.108;2022-08-01T04:37:58;12;11;
70241;PMS5003;57631;52.218;0.108;2022-08-01T04:40:24;15;14;
70241;PMS5003;57631;52.218;0.108;2022-08-01T04:42:49;14;10;
70241;PMS5003;57631;52.218;0.108;2022-08-01T04:45:14;12;12;
70241;PMS5003;57631;52.218;0.108;2022-08-01T04:47:40;10;9;
70241;PMS5003;57631;52.218;0.108;2022-08-01T04:50:06;8;8;
70241;PMS5003;57631;52.218;0.108;2022-08-01T04:52:32;12;9;
70241;PMS5003;57631;52.218;0.108;2022-08-01T04:54:56;14;12;
70241;PMS5003;57631;52.218;0.108;2022-08-01T04:57:22;8;8;
70241;PMS5003;57631;52.218;0.108;2022-08-01T04:59:47;9;9;
70241;PMS5003;57631;52.218;0.108;2022-08-01T05:02:14;9;7;
70241;PMS5003;57631;52.218;0.108;2022-08-01T05:04:38;10;10;
70241;PMS5003;57631;52.218;0.108;2022-08-01T05:07:03;18;14;
70241;PMS5003;57631;52.218;0.108;2022-08-01T05:09:29;11;11;
70241;PMS5003;57631;52.218;0.108;2022-08-01T05:11:54;9;9;
70241;PMS5003;57631;52.218;0.108;2022-08-01T05:14:20;10;10;
70241;PMS5003;57631;52.218;0.108;2022-08-01T05:16:45;11;9;
70241;PMS5003;57631;52.218;0.108;2022-08-01T05:19:10;14;10;
70241;PMS5003;57631;52.218;0.108;2022-08-01T05:21:36;7;7;
70241;PMS5003;57631;52.218;0.108;2022-08-01T05:24:01;10;10;
70241;PMS5003;57631;52.218;0.108;2022-08-01T05:26:26;12;11;
70241;PMS5003;57631;52.218;0.108;2022-08-01T05:28:52;10;10;
70241;PMS5003;57631;52.218;0.108;2022-08-01T05:31:17;11;9;
70241;PMS5003;57631;52.218;0.108;2022-08-01T05:33:42;12;9;
70241;PMS5003;57631;52.218;0.108;2022-08-01T05:36:08;12;10;
70241;PMS5003;57631;52.218;0.108;2022-08-01T05:38:33;11;10;
70241;PMS5003;57631;52.218;0.108;2022-08-01T05:40:58;9;9;
70241;PMS5003;57631;52.218;0.108;2022-08-01T05:43:23;8;8;
70241;PMS5003;57631;52.218;0.108;2022-08-01T05:45:49;9;8;
70241;PMS5003;57631;52.218;0.108;2022-08-01T05:48:14;10;10;
70241;PMS5003;57631;52.218;0.108;2022-08-01T05:50:40;10;10;
70241;PMS5003;57631;52.218;0.108;2022-08-01T05:53:05;7;7;
70241;PMS5003;57631;52.218;0.108;2022-08-01T05:55:30;10;8;
70241;PMS5003;57631;52.218;0.108;2022-08-01T05:57:56;12;9;
70241;PMS5003;57631;52.218;0.108;2022-08-01T06:00:21;10;8;
70241;PMS5003;57631;52.218;0.108;2022-08-01T06:02:46;10;10;
70241;PMS5003;57631;52.218;0.108;2022-08-01T06:05:12;11;8;
70241;PMS5003;57631;52.218;0.108;2022-08-01T06:07:37;6;6;
70241;PMS5003;57631;52.218;0.108;2022-08-01T06:10:02;12;8;
70241;PMS5003;57631;52.218;0.108;2022-08-01T06:12:27;7;7;
70241;PMS5003;57631;52.218;0.108;2022-08-01T06:14:53;12;10;
70241;PMS5003;57631;52.218;0.108;2022-08-01T06:17:18;10;8;
70241;PMS5003;57631;52.218;0.108;2022-08-01T06:19:44;7;7;
70241;PMS5003;57631;52.218;0.108;2022-08-01T06:22:09;10;10;
70241;PMS5003;57631;52.218;0.108;2022-08-01T06:24:34;8;8;
70241;PMS5003;57631;52.218;0.108;2022-08-01T06:27:00;12;9;
70241;PMS5003;57631;52.218;0.108;2022-08-01T06:29:25;10;8;
70241;PMS5003;57631;52.218;0.108;2022-08-01T06:31:51;10;10;
70241;PMS5003;57631;52.218;0.108;2022-08-01T06:34:16;9;9;
70241;PMS5003;57631;52.218;0.108;2022-08-01T06:36:41;12;10;
70241;PMS5003;57631;52.218;0.108;2022-08-01T06:39:06;10;7;
70241;PMS5003;57631;52.218;0.108;2022-08-01T06:41:32;11;11;
70241;PMS5003;57631;52.218;0.108;2022-08-01T06:43:57;10;10;
70241;PMS5003;57631;52.218;0.108;2022-08-01T06:46:22;9;9;
70241;PMS5003;57631;52.218;0.108;2022-08-01T06:48:48;9;6;
70241;PMS5003;57631;52.218;0.108;2022-08-01T06:51:13;13;11;
70241;PMS5003;57631;52.218;0.108;2022-08-01T06:53:39;9;8;
70241;PMS5003;57631;52.218;0.108;2022-08-01T06:56:04;13;10;
70241;PMS5003;57631;52.218;0.108;2022-08-01T06:58:30;15;13;
70241;PMS5003;57631;52.218;0.108;2022-08-01T07:00:55;9;8;
70241;PMS5003;57631;52.218;0.108;2022-08-01T07:03:21;9;8;
70241;PMS5003;57631;52.218;0.108;2022-08-01T07:05:46;11;9;
70241;PMS5003;57631;52.218;0.108;2022-08-01T07:08:11;9;9;
70241;PMS5003;57631;52.218;0.108;2022-08-01T07:10:36;9;9;
70241;PMS5003;57631;52.218;0.108;2022-08-01T07:13:02;10;10;
70241;PMS5003;57631;52.218;0.108;2022-08-01T07:15:27;8;8;
70241;PMS5003;57631;52.218;0.108;2022-08-01T07:17:53;10;8;
70241;PMS5003;57631;52.218;0.108;2022-08-01T07:20:18;8;8;
70241;PMS5003;57631;52.218;0.108;2022-08-01T07:22:43;12;11;
70241;PMS5003;57631;52.218;0.108;2022-08-01T07:25:09;11;10;
70241;PMS5003;57631;52.218;0.108;2022-08-01T07:27:34;8;8;
70241;PMS5003;57631;52.218;0.108;2022-08-01T07:30:05;10;9;
70241;PMS5003;57631;52.218;0.108;2022-08-01T07:32:25;11;7;
70241;PMS5003;57631;52.218;0.108;2022-08-01T07:34:50;9;7;
70241;PMS5003;57631;52.218;0.108;2022-08-01T07:37:15;12;11;
70241;PMS5003;57631;52.218;0.108;2022-08-01T07:39:41;11;11;
70241;PMS5003;57631;52.218;0.108;2022-08-01T07:42:06;13;11;
70241;PMS5003;57631;52.218;0.108;2022-08-01T07:44:31;8;8;
70241;PMS5003;57631;52.218;0.108;2022-08-01T07:46:57;9;9;
70241;PMS5003;57631;52.218;0.108;2022-08-01T07:49:22;12;9;
70241;PMS5003;57631;52.218;0.108;2022-08-01T07:51:47;11;9;
70241;PMS5003;57631;52.218;0.108;2022-08-01T07:54:13;11;9;
70241;PMS5003;57631;52.218;0.108;2022-08-01T07:56:38;13;11;
70241;PMS5003;57631;52.218;0.108;2022-08-01T07:59:04;10;8;
70241;PMS5003;57631;52.218;0.108;2022-08-01T08:01:29;9;9;
70241;PMS5003;57631;52.218;0.108;2022-08-01T08:03:54;12;11;
70241;PMS5003;57631;52.218;0.108;2022-08-01T08:06:19;13;10;
70241;PMS5003;57631;52.218;0.108;2022-08-01T08:08:44;22;17;
70241;PMS5003;57631;52.218;0.108;2022-08-01T08:11:10;13;9;
70241;PMS5003;57631;52.218;0.108;2022-08-01T08:13:35;10;9;
70241;PMS5003;57631;52.218;0.108;2022-08-01T08:16:00;8;8;
70241;PMS5003;57631;52.218;0.108;2022-08-01T08:18:26;10;8;
70241;PMS5003;57631;52.218;0.108;2022-08-01T08:20:51;12;10;
70241;PMS5003;57631;52.218;0.108;2022-08-01T08:23:17;11;11;
70241;PMS5003;57631;52.218;0.108;2022-08-01T08:25:42;14;11;
70241;PMS5003;57631;52.218;0.108;2022-08-01T08:28:07;16;12;
70241;PMS5003;57631;52.218;0.108;2022-08-01T08:30:33;10;8;
70241;PMS5003;57631;52.218;0.108;2022-08-01T08:32:58;12;12;
70241;PMS5003;57631;52.218;0.108;2022-08-01T08:35:23;11;9;
70241;PMS5003;57631;52.218;0.108;2022-08-01T08:37:49;13;12;
70241;PMS5003;57631;52.218;0.108;2022-08-01T08:40:14;11;10;
70241;PMS5003;57631;52.218;0.108;2022-08-01T08:42:40;10;10;
70241;PMS5003;57631;52.218;0.108;2022-08-01T08:45:05;11;11;
70241;PMS5003;57631;52.218;0.108;2022-08-01T08:47:30;15;15;
70241;PMS5003;57631;52.218;0.108;2022-08-01T08:49:55;15;14;
70241;PMS5003;57631;52.218;0.108;2022-08-01T08:52:21;15;15;
70241;PMS5003;57631;52.218;0.108;2022-08-01T08:54:46;12;12;
70241;PMS5003;57631;52.218;0.108;2022-08-01T08:57:11;11;11;
70241;PMS5003;57631;52.218;0.108;2022-08-01T08:59:36;17;15;
70241;PMS5003;57631;52.218;0.108;2022-08-01T09:02:02;15;13;
70241;PMS5003;57631;52.218;0.108;2022-08-01T09:04:27;14;14;
70241;PMS5003;57631;52.218;0.108;2022-08-01T09:06:53;16;15;
70241;PMS5003;57631;52.218;0.108;2022-08-01T09:09:18;17;16;
70241;PMS5003;57631;52.218;0.108;2022-08-01T09:11:43;19;16;
70241;PMS5003;57631;52.218;0.108;2022-08-01T09:14:09;18;15;
70241;PMS5003;57631;52.218;0.108;2022-08-01T09:16:34;19;16;
70241;PMS5003;57631;52.218;0.108;2022-08-01T09:21:25;18;18;
70241;PMS5003;57631;52.218;0.108;2022-08-01T09:23:50;25;22;
70241;PMS5003;57631;52.218;0.108;2022-08-01T09:26:16;21;21;
70241;PMS5003;57631;52.218;0.108;2022-08-01T09:28:41;21;20;
70241;PMS5003;57631;52.218;0.108;2022-08-01T09:31:07;23;21;
70241;PMS5003;57631;52.218;0.108;2022-08-01T09:35:56;19;17;
70241;PMS5003;57631;52.218;0.108;2022-08-01T09:38:23;18;16;
70241;PMS5003;57631;52.218;0.108;2022-08-01T09:40:48;16;15;
70241;PMS5003;57631;52.218;0.108;2022-08-01T09:43:13;19;17;
70241;PMS5003;57631;52.218;0.108;2022-08-01T09:45:38;18;14;
70241;PMS5003;57631;52.218;0.108;2022-08-01T09:48:05;21;17;
70241;PMS5003;57631;52.218;0.108;2022-08-01T09:52:54;16;16;
70241;PMS5003;57631;52.218;0.108;2022-08-01T09:55:20;17;15;
70241;PMS5003;57631;52.218;0.108;2022-08-01T10:00:16;19;17;
70241;PMS5003;57631;52.218;0.108;2022-08-01T10:02:36;17;14;
70241;PMS5003;57631;52.218;0.108;2022-08-01T10:05:01;20;17;
70241;PMS5003;57631;52.218;0.108;2022-08-01T10:07:25;14;14;
70241;PMS5003;57631;52.218;0.108;2022-08-01T10:09:51;19;19;
70241;PMS5003;57631;52.218;0.108;2022-08-01T10:12:17;20;16;
70241;PMS5003;57631;52.218;0.108;2022-08-01T10:14:42;21;16;
70241;PMS5003;57631;52.218;0.108;2022-08-01T10:17:08;15;15;
70241;PMS5003;57631;52.218;0.108;2022-08-01T10:19:32;16;14;
70241;PMS5003;57631;52.218;0.108;2022-08-01T10:21:58;24;22;
70241;PMS5003;57631;52.218;0.108;2022-08-01T10:24:23;18;16;
70241;PMS5003;57631;52.218;0.108;2022-08-01T10:26:49;13;12;
70241;PMS5003;57631;52.218;0.108;2022-08-01T10:29:14;16;12;
70241;PMS5003;57631;52.218;0.108;2022-08-01T10:31:39;19;18;
70241;PMS5003;57631;52.218;0.108;2022-08-01T10:34:04;16;15;
70241;PMS5003;57631;52.218;0.108;2022-08-01T10:36:29;15;14;
70241;PMS5003;57631;52.218;0.108;2022-08-01T10:38:55;17;16;
70241;PMS5003;57631;52.218;0.108;2022-08-01T10:41:20;23;20;
70241;PMS5003;57631;52.218;0.108;2022-08-01T10:43:45;14;12;
70241;PMS5003;57631;52.218;0.108;2022-08-01T10:46:10;13;13;
70241;PMS5003;57631;52.218;0.108;2022-08-01T10:48:39;14;13;
70241;PMS5003;57631;52.218;0.108;2022-08-01T10:51:02;12;12;
70241;PMS5003;57631;52.218;0.108;2022-08-01T10:53:27;13;13;
70241;PMS5003;57631;52.218;0.108;2022-08-01T10:55:52;14;14;
70241;PMS5003;57631;52.218;0.108;2022-08-01T10:58:21;15;12;
70241;PMS5003;57631;52.218;0.108;2022-08-01T11:00:43;16;13;
70241;PMS5003;57631;52.218;0.108;2022-08-01T11:03:08;11;10;
70241;PMS5003;57631;52.218;0.108;2022-08-01T11:05:33;13;11;
70241;PMS5003;57631;52.218;0.108;2022-08-01T11:08:00;9;9;
70241;PMS5003;57631;52.218;0.108;2022-08-01T11:10:24;11;10;
70241;PMS5003;57631;52.218;0.108;2022-08-01T11:12:49;11;11;
70241;PMS5003;57631;52.218;0.108;2022-08-01T11:15:18;9;8;
70241;PMS5003;57631;52.218;0.108;2022-08-01T11:17:40;7;7;
70241;PMS5003;57631;52.218;0.108;2022-08-01T11:20:06;11;10;
70241;PMS5003;57631;52.218;0.108;2022-08-01T11:22:30;8;8;
70241;PMS5003;57631;52.218;0.108;2022-08-01T11:24:55;10;8;
70241;PMS5003;57631;52.218;0.108;2022-08-01T11:27:21;9;8;
70241;PMS5003;57631;52.218;0.108;2022-08-01T11:39:27;9;8;
70241;PMS5003;57631;52.218;0.108;2022-08-01T11:41:52;7;7;
70241;PMS5003;57631;52.218;0.108;2022-08-01T11:44:19;11;9;
70241;PMS5003;57631;52.218;0.108;2022-08-01T11:51:34;7;7;
70241;PMS5003;57631;52.218;0.108;2022-08-01T11:53:59;9;8;
70241;PMS5003;57631;52.218;0.108;2022-08-01T11:56:25;8;8;
70241;PMS5003;57631;52.218;0.108;2022-08-01T11:58:50;8;8;
70241;PMS5003;57631;52.218;0.108;2022-08-01T12:01:15;8;8;
70241;PMS5003;57631;52.218;0.108;2022-08-01T12:03:40;6;6;
70241;PMS5003;57631;52.218;0.108;2022-08-01T12:06:06;7;6;
70241;PMS5003;57631;52.218;0.108;2022-08-01T12:08:32;8;7;
70241;PMS5003;57631;52.218;0.108;2022-08-01T12:10:57;9;9;
70241;PMS5003;57631;52.218;0.108;2022-08-01T12:13:22;9;9;
70241;PMS5003;57631;52.218;0.108;2022-08-01T12:15:48;7;7;
70241;PMS5003;57631;52.218;0.108;2022-08-01T12:18:13;7;6;
70241;PMS5003;57631;52.218;0.108;2022-08-01T12:20:39;8;8;
70241;PMS5003;57631;52.218;0.108;2022-08-01T12:23:04;6;6;
70241;PMS5003;57631;52.218;0.108;2022-08-01T12:25:29;10;8;
70241;PMS5003;57631;52.218;0.108;2022-08-01T12:27:54;8;8;
70241;PMS5003;57631;52.218;0.108;2022-08-01T12:30:20;11;8;
70241;PMS5003;57631;52.218;0.108;2022-08-01T12:32:45;9;8;
70241;PMS5003;57631;52.218;0.108;2022-08-01T12:35:11;9;8;
70241;PMS5003;57631;52.218;0.108;2022-08-01T12:37:36;8;7;
70241;PMS5003;57631;52.218;0.108;2022-08-01T12:40:02;8;8;
70241;PMS5003;57631;52.218;0.108;2022-08-01T12:42:26;7;6;
70241;PMS5003;57631;52.218;0.108;2022-08-01T12:44:52;9;9;
70241;PMS5003;57631;52.218;0.108;2022-08-01T12:47:17;7;6;
70241;PMS5003;57631;52.218;0.108;2022-08-01T12:49:42;8;7;
70241;PMS5003;57631;52.218;0.108;2022-08-01T12:52:07;9;8;
70241;PMS5003;57631;52.218;0.108;2022-08-01T12:56:58;8;8;
70241;PMS5003;57631;52.218;0.108;2022-08-01T12:59:24;6;6;
70241;PMS5003;57631;52.218;0.108;2022-08-01T13:01:49;6;6;
70241;PMS5003;57631;52.218;0.108;2022-08-01T13:04:14;9;8;
70241;PMS5003;57631;52.218;0.108;2022-08-01T13:06:39;5;5;
70241;PMS5003;57631;52.218;0.108;2022-08-01T13:09:05;9;8;
70241;PMS5003;57631;52.218;0.108;2022-08-01T13:11:30;5;5;
70241;PMS5003;57631;52.218;0.108;2022-08-01T13:13:55;9;6;
70241;PMS5003;57631;52.218;0.108;2022-08-01T13:16:21;6;6;
70241;PMS5003;57631;52.218;0.108;2022-08-01T13:18:48;6;6;
70241;PMS5003;57631;52.218;0.108;2022-08-01T13:21:12;8;7;
70241;PMS5003;57631;52.218;0.108;2022-08-01T13:23:37;7;6;
70241;PMS5003;57631;52.218;0.108;2022-08-01T13:26:02;4;4;
70241;PMS5003;57631;52.218;0.108;2022-08-01T13:28:27;6;4;
70241;PMS5003;57631;52.218;0.108;2022-08-01T13:30:54;3;3;
70241;PMS5003;57631;52.218;0.108;2022-08-01T13:33:18;4;4;
70241;PMS5003;57631;52.218;0.108;2022-08-01T13:35:44;4;4;
70241;PMS5003;57631;52.218;0.108;2022-08-01T13:38:09;5;5;
70241;PMS5003;57631;52.218;0.108;2022-08-01T13:40:34;6;5;
70241;PMS5003;57631;52.218;0.108;2022-08-01T13:43:00;5;5;
70241;PMS5003;57631;52.218;0.108;2022-08-01T13:45:25;8;5;
70241;PMS5003;57631;52.218;0.108;2022-08-01T13:47:50;5;4;
70241;PMS5003;57631;52.218;0.108;2022-08-01T13:50:16;5;3;
70241;PMS5003;57631;52.218;0.108;2022-08-01T13:52:41;4;4;
70241;PMS5003;57631;52.218;0.108;2022-08-01T13:55:06;6;4;
70241;PMS5003;57631;52.218;0.108;2022-08-01T13:57:32;4;4;
70241;PMS5003;57631;52.218;0.108;2022-08-01T13:59:57;3;3;
70241;PMS5003;57631;52.218;0.108;2022-08-01T14:02:22;5;5;
70241;PMS5003;57631;52.218;0.108;2022-08-01T14:04:47;9;4;
70241;PMS5003;57631;52.218;0.108;2022-08-01T14:07:13;7;5;
70241;PMS5003;57631;52.218;0.108;2022-08-01T14:09:38;7;4;
70241;PMS5003;57631;52.218;0.108;2022-08-01T14:12:04;3;3;
70241;PMS5003;57631;52.218;0.108;2022-08-01T14:14:29;5;5;
70241;PMS5003;57631;52.218;0.108;2022-08-01T14:16:54;5;4;
70241;PMS5003;57631;52.218;0.108;2022-08-01T14:19:19;5;5;
70241;PMS5003;57631;52.218;0.108;2022-08-01T14:21:45;4;4;
70241;PMS5003;57631;52.218;0.108;2022-08-01T14:24:10;6;6;
70241;PMS5003;57631;52.218;0.108;2022-08-01T14:26:35;5;5;
70241;PMS5003;57631;52.218;0.108;2022-08-01T14:29:01;4;4;
70241;PMS5003;57631;52.218;0.108;2022-08-01T14:31:26;4;4;
70241;PMS5003;57631;52.218;0.108;2022-08-01T14:33:51;4;4;
70241;PMS5003;57631;52.218;0.108;2022-08-01T14:36:16;3;3;
70241;PMS5003;57631;52.218;0.108;2022-08-01T14:38:42;4;4;
70241;PMS5003;57631;52.218;0.108;2022-08-01T14:41:07;4;4;
70241;PMS5003;57631;52.218;0.108;2022-08-01T14:43:32;4;4;
70241;PMS5003;57631;52.218;0.108;2022-08-01T14:45:58;4;3;
70241;PMS5003;57631;52.218;0.108;2022-08-01T14:48:23;5;4;
70241;PMS5003;57631;52.218;0.108;2022-08-01T14:50:48;6;5;
70241;PMS5003;57631;52.218;0.108;2022-08-01T14:53:14;4;4;
70241;PMS5003;57631;52.218;0.108;2022-08-01T14:55:39;4;4;
70241;PMS5003;57631;52.218;0.108;2022-08-01T14:58:04;5;5;
70241;PMS5003;57631;52.218;0.108;2022-08-01T15:00:30;7;5;
70241;PMS5003;57631;52.218;0.108;2022-08-01T15:02:55;4;4;
70241;PMS5003;57631;52.218;0.108;2022-08-01T15:05:20;5;5;
70241;PMS5003;57631;52.218;0.108;2022-08-01T15:07:46;5;5;
70241;PMS5003;57631;52.218;0.108;2022-08-01T15:10:11;7;5;
70241;PMS5003;57631;52.218;0.108;2022-08-01T15:12:36;4;4;
70241;PMS5003;57631;52.218;0.108;2022-08-01T15:15:02;5;5;
70241;PMS5003;57631;52.218;0.108;2022-08-01T15:17:28;4;4;
70241;PMS5003;57631;52.218;0.108;2022-08-01T15:19:53;5;5;
70241;PMS5003;57631;52.218;0.108;2022-08-01T15:22:18;7;6;
70241;PMS5003;57631;52.218;0.108;2022-08-01T15:24:43;4;4;
70241;PMS5003;57631;52.218;0.108;2022-08-01T15:27:08;4;4;
70241;PMS5003;57631;52.218;0.108;2022-08-01T15:29:33;4;4;
70241;PMS5003;57631;52.218;0.108;2022-08-01T15:31:59;5;5;
70241;PMS5003;57631;52.218;0.108;2022-08-01T15:34:24;5;5;
70241;PMS5003;57631;52.218;0.108;2022-08-01T15:36:49;7;5;
70241;PMS5003;57631;52.218;0.108;2022-08-01T15:39:16;5;5;
70241;PMS5003;57631;52.218;0.108;2022-08-01T15:41:41;5;5;
70241;PMS5003;57631;52.218;0.108;2022-08-01T15:44:06;4;4;
70241;PMS5003;57631;52.218;0.108;2022-08-01T15:46:32;5;5;
70241;PMS5003;57631;52.218;0.108;2022-08-01T15:48:57;8;7;
70241;PMS5003;57631;52.218;0.108;2022-08-01T15:51:22;6;5;
70241;PMS5003;57631;52.218;0.108;2022-08-01T15:53:48;5;5;
70241;PMS5003;57631;52.218;0.108;2022-08-01T15:56:13;6;5;
70241;PMS5003;57631;52.218;0.108;2022-08-01T15:58:38;6;6;
70241;PMS5003;57631;52.218;0.108;2022-08-01T16:01:04;7;5;
70241;PMS5003;57631;52.218;0.108;2022-08-01T16:03:29;5;5;
70241;PMS5003;57631;52.218;0.108;2022-08-01T16:05:54;9;7;
70241;PMS5003;57631;52.218;0.108;2022-08-01T16:08:20;5;4;
70241;PMS5003;57631;52.218;0.108;2022-08-01T16:10:45;6;6;
70241;PMS5003;57631;52.218;0.108;2022-08-01T16:13:10;6;6;
70241;PMS5003;57631;52.218;0.108;2022-08-01T16:15:36;7;7;
70241;PMS5003;57631;52.218;0.108;2022-08-01T16:18:01;7;7;
70241;PMS5003;57631;52.218;0.108;2022-08-01T16:20:26;6;6;
70241;PMS5003;57631;52.218;0.108;2022-08-01T16:22:51;9;7;
70241;PMS5003;57631;52.218;0.108;2022-08-01T16:25:17;6;5;
70241;PMS5003;57631;52.218;0.108;2022-08-01T16:27:42;8;6;
70241;PMS5003;57631;52.218;0.108;2022-08-01T16:30:08;7;7;
70241;PMS5003;57631;52.218;0.108;2022-08-01T16:32:33;6;6;
70241;PMS5003;57631;52.218;0.108;2022-08-01T16:34:58;6;6;
70241;PMS5003;57631;52.218;0.108;2022-08-01T16:37:23;7;7;
70241;PMS5003;57631;52.218;0.108;2022-08-01T16:39:49;7;7;
70241;PMS5003;57631;52.218;0.108;2022-08-01T16:42:14;6;6;
70241;PMS5003;57631;52.218;0.108;2022-08-01T16:44:39;6;6;
70241;PMS5003;57631;52.218;0.108;2022-08-01T16:47:05;7;7;
70241;PMS5003;57631;52.218;0.108;2022-08-01T16:49:30;7;7;